sensor_id;sensor_type;location;lat;lon;timestamp;pressure;altitude;pressure_sealevel;temperature;humidity
32456;BME280;18912;43.270;27.942;2023-12-20T00:02:14;98433.81;;;11.26;49.46
32456;BME280;18912;43.270;27.942;2023-12-20T00:04:39;98431.50;;;11.16;49.43
32456;BME280;18912;43.270;27.942;2023-12-20T00:07:05;98426.69;;;11.12;49.55
32456;BME280;18912;43.270;27.942;2023-12-20T00:09:30;98433.75;;;11.06;49.71
32456;BME280;18912;43.270;27.942;2023-12-20T00:11:56;98431.47;;;11.03;49.82
32456;BME280;18912;43.270;27.942;2023-12-20T00:14:22;98422.28;;;11.04;49.72
32456;BME280;18912;43.270;27.942;2023-12-20T00:16:47;98415.44;;;11.08;49.45
32456;BME280;18912;43.270;27.942;2023-12-20T00:19:13;98428.81;;;11.16;49.37
32456;BME280;18912;43.270;27.942;2023-12-20T00:21:38;98421.66;;;11.02;49.48
32456;BME280;18912;43.270;27.942;2023-12-20T00:24:04;98408.56;;;10.99;49.29
32456;BME280;18912;43.270;27.942;2023-12-20T00:26:29;98408.78;;;10.98;49.29
32456;BME280;18912;43.270;27.942;2023-12-20T00:28:55;98409.38;;;11.00;49.41
32456;BME280;18912;43.270;27.942;2023-12-20T00:31:20;98400.22;;;11.01;49.03
32456;BME280;18912;43.270;27.942;2023-12-20T00:33:46;98393.81;;;11.08;48.99
32456;BME280;18912;43.270;27.942;2023-12-20T00:36:12;98400.47;;;11.12;48.59
32456;BME280;18912;43.270;27.942;2023-12-20T00:38:37;98394.41;;;11.04;48.94
32456;BME280;18912;43.270;27.942;2023-12-20T00:41:03;98394.41;;;10.97;48.88
32456;BME280;18912;43.270;27.942;2023-12-20T00:43:28;98399.38;;;11.00;48.82
32456;BME280;18912;43.270;27.942;2023-12-20T00:45:54;98382.31;;;10.93;48.75
32456;BME280;18912;43.270;27.942;2023-12-20T00:48:20;98380.25;;;10.95;48.75
32456;BME280;18912;43.270;27.942;2023-12-20T00:50:46;98387.13;;;10.98;48.78
32456;BME280;18912;43.270;27.942;2023-12-20T00:53:11;98377.63;;;10.68;49.02
32456;BME280;18912;43.270;27.942;2023-12-20T00:55:37;98382.19;;;10.61;49.08
32456;BME280;18912;43.270;27.942;2023-12-20T00:58:03;98370.88;;;10.44;49.35
32456;BME280;18912;43.270;27.942;2023-12-20T01:00:28;98365.03;;;10.41;49.58
32456;BME280;18912;43.270;27.942;2023-12-20T01:02:53;98368.31;;;10.36;49.63
32456;BME280;18912;43.270;27.942;2023-12-20T01:05:19;98359.09;;;10.24;49.82
32456;BME280;18912;43.270;27.942;2023-12-20T01:07:44;98361.72;;;10.11;50.27
32456;BME280;18912;43.270;27.942;2023-12-20T01:10:10;98352.66;;;9.97;50.27
32456;BME280;18912;43.270;27.942;2023-12-20T01:12:36;98363.03;;;9.94;50.42
32456;BME280;18912;43.270;27.942;2023-12-20T01:15:02;98367.56;;;9.87;50.30
32456;BME280;18912;43.270;27.942;2023-12-20T01:17:27;98362.06;;;9.74;50.83
32456;BME280;18912;43.270;27.942;2023-12-20T01:19:53;98361.22;;;9.73;50.86
32456;BME280;18912;43.270;27.942;2023-12-20T01:22:18;98351.84;;;9.69;50.86
32456;BME280;18912;43.270;27.942;2023-12-20T01:24:44;98341.38;;;9.60;50.84
32456;BME280;18912;43.270;27.942;2023-12-20T01:27:09;98345.72;;;9.54;50.97
32456;BME280;18912;43.270;27.942;2023-12-20T01:29:35;98345.56;;;9.34;51.37
32456;BME280;18912;43.270;27.942;2023-12-20T01:32:00;98340.50;;;9.25;51.55
32456;BME280;18912;43.270;27.942;2023-12-20T01:34:26;98336.31;;;9.22;51.59
32456;BME280;18912;43.270;27.942;2023-12-20T01:36:51;98333.16;;;9.19;51.83
32456;BME280;18912;43.270;27.942;2023-12-20T01:39:17;98327.13;;;9.17;52.12
32456;BME280;18912;43.270;27.942;2023-12-20T01:41:43;98327.97;;;9.17;52.06
32456;BME280;18912;43.270;27.942;2023-12-20T01:44:08;98315.09;;;9.19;51.97
32456;BME280;18912;43.270;27.942;2023-12-20T01:46:34;98321.47;;;9.12;52.45
32456;BME280;18912;43.270;27.942;2023-12-20T01:49:00;98313.38;;;9.12;52.31
32456;BME280;18912;43.270;27.942;2023-12-20T01:51:26;98301.38;;;9.14;52.38
32456;BME280;18912;43.270;27.942;2023-12-20T01:53:55;98304.78;;;9.23;52.49
32456;BME280;18912;43.270;27.942;2023-12-20T01:56:20;98299.44;;;9.29;52.53
32456;BME280;18912;43.270;27.942;2023-12-20T01:58:47;98294.47;;;9.33;52.45
32456;BME280;18912;43.270;27.942;2023-12-20T02:01:13;98291.22;;;8.95;53.50
32456;BME280;18912;43.270;27.942;2023-12-20T02:03:42;98264.06;;;8.97;53.09
32456;BME280;18912;43.270;27.942;2023-12-20T02:06:09;98276.22;;;9.35;52.81
32456;BME280;18912;43.270;27.942;2023-12-20T02:08:35;98285.56;;;9.32;52.66
32456;BME280;18912;43.270;27.942;2023-12-20T02:11:01;98276.97;;;9.22;52.64
32456;BME280;18912;43.270;27.942;2023-12-20T02:13:27;98280.44;;;9.16;52.52
32456;BME280;18912;43.270;27.942;2023-12-20T02:15:54;98254.38;;;9.02;52.62
32456;BME280;18912;43.270;27.942;2023-12-20T02:18:19;98263.25;;;8.96;52.77
32456;BME280;18912;43.270;27.942;2023-12-20T02:20:45;98257.66;;;8.98;52.98
32456;BME280;18912;43.270;27.942;2023-12-20T02:23:10;98254.69;;;8.93;53.30
32456;BME280;18912;43.270;27.942;2023-12-20T02:25:36;98251.72;;;8.81;53.46
32456;BME280;18912;43.270;27.942;2023-12-20T02:28:03;98254.22;;;8.83;53.63
32456;BME280;18912;43.270;27.942;2023-12-20T02:30:29;98239.63;;;8.77;53.72
32456;BME280;18912;43.270;27.942;2023-12-20T02:32:54;98234.63;;;8.74;53.61
32456;BME280;18912;43.270;27.942;2023-12-20T02:35:20;98235.53;;;8.60;54.33
32456;BME280;18912;43.270;27.942;2023-12-20T02:37:45;98233.47;;;8.62;54.19
32456;BME280;18912;43.270;27.942;2023-12-20T02:40:11;98214.09;;;8.52;54.26
32456;BME280;18912;43.270;27.942;2023-12-20T02:42:36;98221.09;;;8.46;54.43
32456;BME280;18912;43.270;27.942;2023-12-20T02:45:02;98222.69;;;8.41;54.73
32456;BME280;18912;43.270;27.942;2023-12-20T02:47:27;98222.91;;;8.25;55.39
32456;BME280;18912;43.270;27.942;2023-12-20T02:49:55;98229.50;;;8.22;55.46
32456;BME280;18912;43.270;27.942;2023-12-20T02:52:20;98217.44;;;8.18;55.58
32456;BME280;18912;43.270;27.942;2023-12-20T02:54:46;98214.19;;;8.08;56.28
32456;BME280;18912;43.270;27.942;2023-12-20T02:57:11;98214.47;;;8.28;56.08
32456;BME280;18912;43.270;27.942;2023-12-20T02:59:37;98208.94;;;8.36;56.07
32456;BME280;18912;43.270;27.942;2023-12-20T03:02:02;98215.91;;;8.45;56.15
32456;BME280;18912;43.270;27.942;2023-12-20T03:04:28;98218.31;;;8.61;55.78
32456;BME280;18912;43.270;27.942;2023-12-20T03:06:53;98215.38;;;8.56;55.63
32456;BME280;18912;43.270;27.942;2023-12-20T03:09:18;98215.38;;;8.56;55.57
32456;BME280;18912;43.270;27.942;2023-12-20T03:11:44;98210.44;;;8.60;54.98
32456;BME280;18912;43.270;27.942;2023-12-20T03:14:09;98195.41;;;8.29;55.45
32456;BME280;18912;43.270;27.942;2023-12-20T03:16:35;98201.25;;;8.33;55.11
32456;BME280;18912;43.270;27.942;2023-12-20T03:19:00;98195.44;;;8.15;55.43
32456;BME280;18912;43.270;27.942;2023-12-20T03:21:26;98205.25;;;8.22;55.31
32456;BME280;18912;43.270;27.942;2023-12-20T03:23:51;98201.28;;;8.18;55.42
32456;BME280;18912;43.270;27.942;2023-12-20T03:26:17;98213.06;;;8.32;55.07
32456;BME280;18912;43.270;27.942;2023-12-20T03:28:42;98203.31;;;8.16;55.00
32456;BME280;18912;43.270;27.942;2023-12-20T03:31:09;98205.66;;;8.05;55.09
32456;BME280;18912;43.270;27.942;2023-12-20T03:33:35;98194.44;;;8.01;56.00
32456;BME280;18912;43.270;27.942;2023-12-20T03:36:00;98195.50;;;8.21;56.26
32456;BME280;18912;43.270;27.942;2023-12-20T03:38:26;98200.38;;;8.47;56.25
32456;BME280;18912;43.270;27.942;2023-12-20T03:40:51;98195.16;;;8.45;56.29
32456;BME280;18912;43.270;27.942;2023-12-20T03:43:16;98194.84;;;8.55;56.45
32456;BME280;18912;43.270;27.942;2023-12-20T03:45:43;98192.34;;;8.75;56.31
32456;BME280;18912;43.270;27.942;2023-12-20T03:48:08;98187.84;;;8.82;55.88
32456;BME280;18912;43.270;27.942;2023-12-20T03:50:34;98188.34;;;8.92;56.07
32456;BME280;18912;43.270;27.942;2023-12-20T03:53:00;98176.81;;;9.04;55.69
32456;BME280;18912;43.270;27.942;2023-12-20T03:55:26;98178.38;;;9.20;54.83
32456;BME280;18912;43.270;27.942;2023-12-20T03:57:51;98187.00;;;9.36;54.48
32456;BME280;18912;43.270;27.942;2023-12-20T04:00:17;98186.84;;;9.44;54.36
32456;BME280;18912;43.270;27.942;2023-12-20T04:02:42;98187.25;;;9.41;53.82
32456;BME280;18912;43.270;27.942;2023-12-20T04:05:09;98179.16;;;9.41;53.83
32456;BME280;18912;43.270;27.942;2023-12-20T04:07:35;98172.78;;;9.56;53.51
32456;BME280;18912;43.270;27.942;2023-12-20T04:10:01;98170.56;;;9.66;53.34
32456;BME280;18912;43.270;27.942;2023-12-20T04:12:30;98169.56;;;9.73;53.05
32456;BME280;18912;43.270;27.942;2023-12-20T04:14:56;98159.63;;;9.74;52.77
32456;BME280;18912;43.270;27.942;2023-12-20T04:17:22;98171.06;;;9.76;52.76
32456;BME280;18912;43.270;27.942;2023-12-20T04:19:51;98164.38;;;9.72;52.90
32456;BME280;18912;43.270;27.942;2023-12-20T04:22:19;98161.47;;;9.67;52.91
32456;BME280;18912;43.270;27.942;2023-12-20T04:24:45;98159.84;;;9.79;52.66
32456;BME280;18912;43.270;27.942;2023-12-20T04:27:11;98162.31;;;9.74;52.81
32456;BME280;18912;43.270;27.942;2023-12-20T04:29:36;98167.88;;;9.66;53.24
32456;BME280;18912;43.270;27.942;2023-12-20T04:32:02;98162.31;;;9.74;53.05
32456;BME280;18912;43.270;27.942;2023-12-20T04:34:29;98156.50;;;9.70;52.99
32456;BME280;18912;43.270;27.942;2023-12-20T04:36:54;98157.72;;;9.68;53.09
32456;BME280;18912;43.270;27.942;2023-12-20T04:39:20;98144.75;;;9.50;53.44
32456;BME280;18912;43.270;27.942;2023-12-20T04:41:46;98155.16;;;9.53;53.45
32456;BME280;18912;43.270;27.942;2023-12-20T04:44:13;98153.84;;;9.42;53.80
32456;BME280;18912;43.270;27.942;2023-12-20T04:46:39;98148.88;;;9.46;53.85
32456;BME280;18912;43.270;27.942;2023-12-20T04:49:04;98147.22;;;9.45;53.41
32456;BME280;18912;43.270;27.942;2023-12-20T04:51:33;98144.31;;;9.47;53.37
32456;BME280;18912;43.270;27.942;2023-12-20T04:53:59;98142.25;;;9.49;53.10
32456;BME280;18912;43.270;27.942;2023-12-20T04:56:25;98147.59;;;9.35;53.58
32456;BME280;18912;43.270;27.942;2023-12-20T04:58:50;98146.06;;;9.26;53.50
32456;BME280;18912;43.270;27.942;2023-12-20T05:01:16;98146.50;;;9.30;53.42
32456;BME280;18912;43.270;27.942;2023-12-20T05:03:42;98149.00;;;9.31;53.17
32456;BME280;18912;43.270;27.942;2023-12-20T05:06:07;98144.59;;;9.24;53.49
32456;BME280;18912;43.270;27.942;2023-12-20T05:08:33;98155.16;;;9.19;53.98
32456;BME280;18912;43.270;27.942;2023-12-20T05:10:58;98147.31;;;9.24;53.87
32456;BME280;18912;43.270;27.942;2023-12-20T05:13:24;98149.22;;;9.36;53.61
32456;BME280;18912;43.270;27.942;2023-12-20T05:15:50;98142.63;;;9.39;53.35
32456;BME280;18912;43.270;27.942;2023-12-20T05:18:16;98141.78;;;9.38;53.27
32456;BME280;18912;43.270;27.942;2023-12-20T05:20:41;98141.59;;;9.40;53.12
32456;BME280;18912;43.270;27.942;2023-12-20T05:23:07;98134.88;;;9.29;53.12
32456;BME280;18912;43.270;27.942;2023-12-20T05:25:32;98138.22;;;9.31;53.20
32456;BME280;18912;43.270;27.942;2023-12-20T05:27:58;98135.50;;;9.25;53.43
32456;BME280;18912;43.270;27.942;2023-12-20T05:30:24;98136.78;;;9.35;53.07
32456;BME280;18912;43.270;27.942;2023-12-20T05:32:49;98136.84;;;9.42;53.00
32456;BME280;18912;43.270;27.942;2023-12-20T05:35:15;98131.44;;;9.42;52.76
32456;BME280;18912;43.270;27.942;2023-12-20T05:37:41;98128.09;;;9.40;52.51
32456;BME280;18912;43.270;27.942;2023-12-20T05:40:07;98136.84;;;9.49;52.44
32456;BME280;18912;43.270;27.942;2023-12-20T05:42:36;98128.13;;;9.47;52.60
32456;BME280;18912;43.270;27.942;2023-12-20T05:45:03;98127.75;;;9.50;52.13
32456;BME280;18912;43.270;27.942;2023-12-20T05:47:29;98129.91;;;9.33;52.43
32456;BME280;18912;43.270;27.942;2023-12-20T05:49:54;98127.91;;;9.41;52.36
32456;BME280;18912;43.270;27.942;2023-12-20T05:52:20;98129.81;;;9.48;52.29
32456;BME280;18912;43.270;27.942;2023-12-20T05:54:45;98130.72;;;9.68;52.05
32456;BME280;18912;43.270;27.942;2023-12-20T05:57:11;98133.56;;;10.00;51.71
32456;BME280;18912;43.270;27.942;2023-12-20T05:59:36;98129.13;;;10.53;50.99
32456;BME280;18912;43.270;27.942;2023-12-20T06:02:03;98109.34;;;10.98;49.62
32456;BME280;18912;43.270;27.942;2023-12-20T06:04:29;98130.84;;;11.77;48.38
32456;BME280;18912;43.270;27.942;2023-12-20T06:06:55;98130.47;;;12.49;46.13
32456;BME280;18912;43.270;27.942;2023-12-20T06:09:20;98133.09;;;13.36;44.56
32456;BME280;18912;43.270;27.942;2023-12-20T06:11:46;98131.19;;;14.56;42.73
32456;BME280;18912;43.270;27.942;2023-12-20T06:14:11;98125.50;;;15.80;40.20
32456;BME280;18912;43.270;27.942;2023-12-20T06:16:37;98129.56;;;17.07;37.93
32456;BME280;18912;43.270;27.942;2023-12-20T06:19:02;98134.38;;;18.52;35.55
32456;BME280;18912;43.270;27.942;2023-12-20T06:21:28;98128.88;;;20.26;33.10
32456;BME280;18912;43.270;27.942;2023-12-20T06:23:54;98126.91;;;22.43;29.83
32456;BME280;18912;43.270;27.942;2023-12-20T06:26:20;98123.41;;;24.34;27.79
32456;BME280;18912;43.270;27.942;2023-12-20T06:28:45;98118.81;;;25.73;25.97
32456;BME280;18912;43.270;27.942;2023-12-20T06:31:11;98119.38;;;26.16;24.74
32456;BME280;18912;43.270;27.942;2023-12-20T06:33:37;98123.06;;;27.37;23.54
32456;BME280;18912;43.270;27.942;2023-12-20T06:36:06;98118.53;;;27.41;23.64
32456;BME280;18912;43.270;27.942;2023-12-20T06:38:31;98125.69;;;26.98;24.04
32456;BME280;18912;43.270;27.942;2023-12-20T06:40:57;98115.41;;;27.87;23.37
32456;BME280;18912;43.270;27.942;2023-12-20T06:43:23;98117.75;;;28.33;22.54
32456;BME280;18912;43.270;27.942;2023-12-20T06:45:49;98114.53;;;29.21;21.88
32456;BME280;18912;43.270;27.942;2023-12-20T06:48:16;98115.06;;;28.11;22.71
32456;BME280;18912;43.270;27.942;2023-12-20T06:50:41;98113.81;;;26.84;23.43
32456;BME280;18912;43.270;27.942;2023-12-20T06:53:07;98113.53;;;27.96;23.46
32456;BME280;18912;43.270;27.942;2023-12-20T06:55:34;98109.28;;;27.46;23.14
32456;BME280;18912;43.270;27.942;2023-12-20T06:58:01;98101.28;;;27.97;23.31
32456;BME280;18912;43.270;27.942;2023-12-20T07:00:27;98107.50;;;29.32;22.32
32456;BME280;18912;43.270;27.942;2023-12-20T07:02:53;98100.69;;;29.93;21.79
32456;BME280;18912;43.270;27.942;2023-12-20T07:05:19;98092.59;;;30.09;21.93
32456;BME280;18912;43.270;27.942;2023-12-20T07:07:48;98088.34;;;30.03;21.35
32456;BME280;18912;43.270;27.942;2023-12-20T07:10:13;98085.97;;;30.22;21.63
32456;BME280;18912;43.270;27.942;2023-12-20T07:12:39;98086.81;;;30.14;21.86
32456;BME280;18912;43.270;27.942;2023-12-20T07:15:05;98087.50;;;29.47;22.70
32456;BME280;18912;43.270;27.942;2023-12-20T07:17:33;98089.13;;;28.97;22.86
32456;BME280;18912;43.270;27.942;2023-12-20T07:19:58;98081.19;;;26.00;24.94
32456;BME280;18912;43.270;27.942;2023-12-20T07:22:28;98082.63;;;23.50;27.47
32456;BME280;18912;43.270;27.942;2023-12-20T07:24:54;98078.56;;;23.09;28.00
32456;BME280;18912;43.270;27.942;2023-12-20T07:27:20;98080.28;;;24.15;27.04
32456;BME280;18912;43.270;27.942;2023-12-20T07:29:45;98062.53;;;23.45;27.49
32456;BME280;18912;43.270;27.942;2023-12-20T07:32:11;98072.38;;;22.45;28.57
32456;BME280;18912;43.270;27.942;2023-12-20T07:34:36;98069.84;;;21.94;29.28
32456;BME280;18912;43.270;27.942;2023-12-20T07:37:02;98066.16;;;21.10;30.21
32456;BME280;18912;43.270;27.942;2023-12-20T07:39:27;98055.09;;;20.44;31.50
32456;BME280;18912;43.270;27.942;2023-12-20T07:41:53;98056.53;;;19.90;32.02
32456;BME280;18912;43.270;27.942;2023-12-20T07:44:19;98060.91;;;19.86;32.00
32456;BME280;18912;43.270;27.942;2023-12-20T07:46:44;98053.31;;;20.03;31.57
32456;BME280;18912;43.270;27.942;2023-12-20T07:49:10;98058.16;;;19.86;31.75
32456;BME280;18912;43.270;27.942;2023-12-20T07:51:36;98052.06;;;19.69;32.46
32456;BME280;18912;43.270;27.942;2023-12-20T07:54:02;98058.66;;;18.95;33.42
32456;BME280;18912;43.270;27.942;2023-12-20T07:56:28;98050.38;;;19.26;33.62
32456;BME280;18912;43.270;27.942;2023-12-20T07:58:54;98066.91;;;19.78;32.80
32456;BME280;18912;43.270;27.942;2023-12-20T08:01:20;98053.31;;;19.46;33.04
32456;BME280;18912;43.270;27.942;2023-12-20T08:03:45;98052.25;;;19.16;33.21
32456;BME280;18912;43.270;27.942;2023-12-20T08:06:11;98054.69;;;20.06;32.58
32456;BME280;18912;43.270;27.942;2023-12-20T08:08:37;98046.69;;;19.06;33.34
32456;BME280;18912;43.270;27.942;2023-12-20T08:11:03;98049.06;;;19.76;33.33
32456;BME280;18912;43.270;27.942;2023-12-20T08:13:28;98052.91;;;19.80;33.41
32456;BME280;18912;43.270;27.942;2023-12-20T08:15:55;98047.56;;;19.53;33.43
32456;BME280;18912;43.270;27.942;2023-12-20T08:18:21;98041.31;;;20.24;32.67
32456;BME280;18912;43.270;27.942;2023-12-20T08:20:46;98027.44;;;19.84;32.73
32456;BME280;18912;43.270;27.942;2023-12-20T08:23:15;98038.00;;;19.19;33.46
32456;BME280;18912;43.270;27.942;2023-12-20T08:25:40;98028.31;;;20.05;33.30
32456;BME280;18912;43.270;27.942;2023-12-20T08:28:06;98019.50;;;19.93;32.88
32456;BME280;18912;43.270;27.942;2023-12-20T08:30:32;98014.75;;;20.90;31.84
32456;BME280;18912;43.270;27.942;2023-12-20T08:33:01;98010.06;;;20.81;31.64
32456;BME280;18912;43.270;27.942;2023-12-20T08:35:26;98015.47;;;20.15;32.13
32456;BME280;18912;43.270;27.942;2023-12-20T08:37:52;98003.69;;;20.20;32.24
32456;BME280;18912;43.270;27.942;2023-12-20T08:40:17;97993.31;;;20.67;31.63
32456;BME280;18912;43.270;27.942;2023-12-20T08:42:43;97998.63;;;21.83;30.83
32456;BME280;18912;43.270;27.942;2023-12-20T08:45:09;97987.81;;;21.12;31.56
32456;BME280;18912;43.270;27.942;2023-12-20T08:47:35;97982.81;;;21.29;32.04
32456;BME280;18912;43.270;27.942;2023-12-20T08:50:00;97984.34;;;21.66;30.94
32456;BME280;18912;43.270;27.942;2023-12-20T08:52:27;97972.16;;;20.27;32.52
32456;BME280;18912;43.270;27.942;2023-12-20T08:54:53;97964.72;;;20.18;32.80
32456;BME280;18912;43.270;27.942;2023-12-20T08:57:22;97962.84;;;21.04;32.18
32456;BME280;18912;43.270;27.942;2023-12-20T08:59:49;97965.84;;;20.82;32.99
32456;BME280;18912;43.270;27.942;2023-12-20T09:02:15;97959.09;;;19.73;33.62
32456;BME280;18912;43.270;27.942;2023-12-20T09:04:41;97958.78;;;19.59;33.44
32456;BME280;18912;43.270;27.942;2023-12-20T09:07:20;97956.50;;;20.48;33.31
32456;BME280;18912;43.270;27.942;2023-12-20T09:09:45;97943.34;;;20.60;32.37
32456;BME280;18912;43.270;27.942;2023-12-20T09:12:11;97943.63;;;20.33;32.80
32456;BME280;18912;43.270;27.942;2023-12-20T09:14:37;97936.75;;;20.66;32.93
32456;BME280;18912;43.270;27.942;2023-12-20T09:17:03;97926.25;;;21.77;31.49
32456;BME280;18912;43.270;27.942;2023-12-20T09:19:29;97920.25;;;21.80;31.29
32456;BME280;18912;43.270;27.942;2023-12-20T09:21:55;97913.78;;;21.41;31.01
32456;BME280;18912;43.270;27.942;2023-12-20T09:24:20;97916.16;;;20.84;32.00
32456;BME280;18912;43.270;27.942;2023-12-20T09:26:46;97911.91;;;21.31;32.01
32456;BME280;18912;43.270;27.942;2023-12-20T09:29:11;97905.63;;;22.23;31.26
32456;BME280;18912;43.270;27.942;2023-12-20T09:31:40;97890.91;;;22.04;31.20
32456;BME280;18912;43.270;27.942;2023-12-20T09:34:06;97886.81;;;21.43;31.46
32456;BME280;18912;43.270;27.942;2023-12-20T09:36:33;97881.19;;;22.17;30.46
32456;BME280;18912;43.270;27.942;2023-12-20T09:39:01;97881.31;;;21.43;30.61
32456;BME280;18912;43.270;27.942;2023-12-20T09:41:29;97882.38;;;21.57;31.05
32456;BME280;18912;43.270;27.942;2023-12-20T09:44:00;97882.75;;;22.62;29.52
32456;BME280;18912;43.270;27.942;2023-12-20T09:46:28;97891.00;;;21.35;30.62
32456;BME280;18912;43.270;27.942;2023-12-20T09:48:59;97865.22;;;21.16;31.73
32456;BME280;18912;43.270;27.942;2023-12-20T09:51:25;97862.53;;;21.65;31.39
32456;BME280;18912;43.270;27.942;2023-12-20T09:53:51;97853.50;;;21.01;30.98
32456;BME280;18912;43.270;27.942;2023-12-20T09:56:19;97844.94;;;22.05;30.79
32456;BME280;18912;43.270;27.942;2023-12-20T09:58:45;97841.97;;;22.64;30.45
32456;BME280;18912;43.270;27.942;2023-12-20T10:01:11;97850.88;;;22.51;29.60
32456;BME280;18912;43.270;27.942;2023-12-20T10:03:39;97838.84;;;21.69;29.83
32456;BME280;18912;43.270;27.942;2023-12-20T10:06:06;97822.31;;;21.74;30.20
32456;BME280;18912;43.270;27.942;2023-12-20T10:08:32;97832.16;;;21.36;29.53
32456;BME280;18912;43.270;27.942;2023-12-20T10:10:58;97823.53;;;21.53;30.07
32456;BME280;18912;43.270;27.942;2023-12-20T10:13:28;97821.00;;;21.18;30.17
32456;BME280;18912;43.270;27.942;2023-12-20T10:15:55;97820.47;;;22.03;30.12
32456;BME280;18912;43.270;27.942;2023-12-20T10:18:21;97816.19;;;22.21;28.92
32456;BME280;18912;43.270;27.942;2023-12-20T10:20:46;97816.22;;;21.77;29.15
32456;BME280;18912;43.270;27.942;2023-12-20T10:23:12;97803.22;;;21.49;29.10
32456;BME280;18912;43.270;27.942;2023-12-20T10:25:39;97802.91;;;21.94;30.06
32456;BME280;18912;43.270;27.942;2023-12-20T10:28:15;97806.66;;;22.08;30.01
32456;BME280;18912;43.270;27.942;2023-12-20T10:30:46;97797.59;;;22.37;30.29
32456;BME280;18912;43.270;27.942;2023-12-20T10:33:12;97805.06;;;22.02;30.09
32456;BME280;18912;43.270;27.942;2023-12-20T10:35:38;97786.59;;;21.69;30.60
32456;BME280;18912;43.270;27.942;2023-12-20T10:38:05;97787.59;;;21.83;30.72
32456;BME280;18912;43.270;27.942;2023-12-20T10:40:35;97783.97;;;21.00;31.09
32456;BME280;18912;43.270;27.942;2023-12-20T10:43:04;97775.44;;;20.92;31.56
32456;BME280;18912;43.270;27.942;2023-12-20T10:45:30;97781.13;;;22.32;30.88
32456;BME280;18912;43.270;27.942;2023-12-20T10:47:56;97770.66;;;22.00;30.51
32456;BME280;18912;43.270;27.942;2023-12-20T10:50:24;97781.16;;;22.26;30.10
32456;BME280;18912;43.270;27.942;2023-12-20T10:52:50;97766.53;;;21.20;31.65
32456;BME280;18912;43.270;27.942;2023-12-20T10:55:24;97761.81;;;21.30;30.85
32456;BME280;18912;43.270;27.942;2023-12-20T10:57:51;97761.69;;;21.02;31.81
32456;BME280;18912;43.270;27.942;2023-12-20T11:00:18;97759.53;;;21.86;31.98
32456;BME280;18912;43.270;27.942;2023-12-20T11:02:44;97760.66;;;21.75;32.79
32456;BME280;18912;43.270;27.942;2023-12-20T11:08:09;97756.28;;;22.65;30.30
32456;BME280;18912;43.270;27.942;2023-12-20T11:13:44;97739.88;;;21.20;31.73
32456;BME280;18912;43.270;27.942;2023-12-20T11:16:13;97744.28;;;21.60;32.23
32456;BME280;18912;43.270;27.942;2023-12-20T11:18:40;97743.28;;;21.85;32.39
32456;BME280;18912;43.270;27.942;2023-12-20T11:21:06;97738.00;;;21.55;32.72
32456;BME280;18912;43.270;27.942;2023-12-20T11:23:32;97738.59;;;21.85;31.19
32456;BME280;18912;43.270;27.942;2023-12-20T11:26:02;97724.22;;;21.21;32.45
32456;BME280;18912;43.270;27.942;2023-12-20T11:28:28;97729.16;;;22.49;31.46
32456;BME280;18912;43.270;27.942;2023-12-20T11:30:57;97743.38;;;21.70;31.99
32456;BME280;18912;43.270;27.942;2023-12-20T11:33:45;97722.97;;;20.24;34.45
32456;BME280;18912;43.270;27.942;2023-12-20T11:36:19;97720.25;;;19.74;35.79
32456;BME280;18912;43.270;27.942;2023-12-20T11:38:55;97712.84;;;19.80;35.97
32456;BME280;18912;43.270;27.942;2023-12-20T11:41:23;97705.38;;;19.15;37.06
32456;BME280;18912;43.270;27.942;2023-12-20T11:43:53;97710.31;;;19.23;36.92
32456;BME280;18912;43.270;27.942;2023-12-20T11:46:19;97712.75;;;19.09;37.05
32456;BME280;18912;43.270;27.942;2023-12-20T11:48:45;97704.00;;;19.17;37.14
32456;BME280;18912;43.270;27.942;2023-12-20T11:51:12;97706.28;;;19.50;36.83
32456;BME280;18912;43.270;27.942;2023-12-20T11:53:39;97688.19;;;19.60;36.24
32456;BME280;18912;43.270;27.942;2023-12-20T11:56:08;97705.91;;;18.92;37.02
32456;BME280;18912;43.270;27.942;2023-12-20T11:58:34;97690.53;;;18.24;39.35
32456;BME280;18912;43.270;27.942;2023-12-20T12:01:00;97687.16;;;17.33;41.20
32456;BME280;18912;43.270;27.942;2023-12-20T12:03:27;97674.09;;;17.09;42.13
32456;BME280;18912;43.270;27.942;2023-12-20T12:05:53;97674.31;;;17.60;41.33
32456;BME280;18912;43.270;27.942;2023-12-20T12:08:18;97662.63;;;17.75;41.08
32456;BME280;18912;43.270;27.942;2023-12-20T12:10:45;97655.94;;;17.98;39.60
32456;BME280;18912;43.270;27.942;2023-12-20T12:13:11;97656.50;;;18.51;38.33
32456;BME280;18912;43.270;27.942;2023-12-20T12:15:37;97646.13;;;18.07;38.11
32456;BME280;18912;43.270;27.942;2023-12-20T12:18:03;97652.28;;;17.82;38.94
32456;BME280;18912;43.270;27.942;2023-12-20T12:20:29;97649.72;;;18.12;38.26
32456;BME280;18912;43.270;27.942;2023-12-20T12:23:02;97647.75;;;17.56;39.42
32456;BME280;18912;43.270;27.942;2023-12-20T12:25:34;97644.94;;;17.14;41.00
32456;BME280;18912;43.270;27.942;2023-12-20T12:28:01;97633.28;;;16.44;41.26
32456;BME280;18912;43.270;27.942;2023-12-20T12:30:26;97631.34;;;16.93;41.33
32456;BME280;18912;43.270;27.942;2023-12-20T12:32:52;97632.13;;;17.20;41.58
32456;BME280;18912;43.270;27.942;2023-12-20T12:35:19;97622.78;;;17.11;42.68
32456;BME280;18912;43.270;27.942;2023-12-20T12:37:44;97618.38;;;16.78;42.10
32456;BME280;18912;43.270;27.942;2023-12-20T12:40:11;97599.94;;;17.27;41.67
32456;BME280;18912;43.270;27.942;2023-12-20T12:42:38;97596.75;;;17.35;41.48
32456;BME280;18912;43.270;27.942;2023-12-20T12:45:04;97598.28;;;17.21;40.38
32456;BME280;18912;43.270;27.942;2023-12-20T12:47:30;97614.88;;;17.09;41.32
32456;BME280;18912;43.270;27.942;2023-12-20T12:49:56;97602.97;;;16.62;41.47
32456;BME280;18912;43.270;27.942;2023-12-20T12:52:22;97600.88;;;16.74;41.44
32456;BME280;18912;43.270;27.942;2023-12-20T12:54:48;97589.22;;;16.83;40.99